Aérodrome :
LOGIN :

S'inscrire | Disclaimer

   EN    FR    IT 

 










Légende :    VFR   VFR Marginal   IFR   IFR Intensif   IFR Très Intensif
Visi : 
Plafond : 
>= 8 km
>= 3000ft
5 à 8 km
1000 à 3000 ft
1500m à 5 km
500 à 1000 ft
800 à 1500m
200 à 500 ft
< 800m
< 200 ft
Symboles :   Orages  Brouillard  Fortes neiges  Fortes précipitations  Vent > 20 kt
SIGMETs :   Divers  Orages  Givrage  Turbulence  Onde Orograph.  Cendres Volcan.







- Altitude de l'aérodrome : 37 ft


EHVL - Vlieland Heliport

DERNIER METAR :
  • 180325Z AUTO 18004KT 9000 BR FEW270 OVC350 10/08 Q1015 BLU

METARs EXPIRÉS :
  • 180307Z AUTO 24003KT 180V250 8000 BR BKN290 OVC360 10/08 Q1015 BLU
  • 180303Z AUTO 26003KT 7000 BR BKN290 OVC360 10/08 Q1015 WHT
  • 180255Z AUTO 27004KT 8000 BR OVC350 10/08 Q1015 BLU
  • 180235Z AUTO 27004KT 9000 HZ BKN300 OVC360 12/09 Q1015 BLU
  • 180225Z AUTO 29005KT 8000 HZ SCT300 OVC360 13/09 Q1015 BLU
  • 180212Z AUTO 28005KT 7000 HZ OVC360 13/10 Q1015 WHT
  • 180159Z AUTO 28004KT 7000 HZ FEW057 SCT120 OVC340 13/10 Q1015 WHT
  • 180155Z AUTO 27004KT 9000 HZ FEW057 SCT120 BKN290 13/10 Q1015 BLU
  • 180125Z AUTO 28009KT 9999 BKN310 OVC370 13/10 Q1015 BLU
  • 180055Z AUTO 26007KT 9999 OVC340 13/10 Q1016 BLU

Prévision TAF périmée.
Pas de NOTAMs connus pour ce terrain.



MET'MAP, la Météo Aéronautique d'un coup d'oeil ! - Copyright ORBIFLY Décembre 2007 - Disclaimer

ORBIFLY MET'MAP TEAM :

Programmation & Développement : Alexandra Zaïnal
Conception & Développement : Baudouin d'Aumeries
Co-Programmation & Développement : Marc-Olivier Méhu
Soutien technique & logistique : Manuel Goepfert

Contact : metmap@orbifly.com




SOURCES & CREDITS :

   NOAA